Wausau Downtown Airport Wausau US
ICAO: KAUW
IATA: AUW
Category: Medium
Scheduled Services: No

Elevation: 1201 ft
TransAlt. 18000 ft.

Airport Communications:
ASOS:125.925
MINNEAPOLIS CNTR:124.4
GREEN BAY RDO:122.4
CTAF/UNICOM:122.7

KAUW Zoom In..

If you have problems with the map follow the link
https://www.worldairports.se/pages/airport.php?
ICAO=KAUW

Runways:

(A) RW 05 length 3041 ft width 100 ft
---- / hdg 47

(B) RW 13 length 5200 ft width 100 ft
---- / hdg 127

(C) RW 23 length 3041 ft width 100 ft
---- / hdg 227

(D) RW 31 length 5200 ft width 100 ft
---- / hdg 307

Location; KAUW
Day. 17 / Time. 21.54 Zulu
* Altimeter: 30.41
* Temperature: -07° c. -19.4°f.
* Wind from: 120° Speed 10 kn.
Dewpoint: -09° c.
Visibility: 10 Statute Miles.
Clouds: Overcast 1400 ft.

KAUW 172154Z AUTO 12010KT 10SM OVC014 M07/M09 A3041 RMK AO2 SLP334 T10671094


Wind From 120°
Speed 10 kn.

 
 
jpsmedia worldairports.se 2020   terms of use